Latest Coastal Weather Observations for Aireys Inlet

IDV60701

Issued at 12:45 am EST Tuesday 22 April 2014 (issued every 10 minutes, with the page automatically refreshed every 10 minutes)

About coastal observations | Map of coastal stations | Coastal observations for VIC | Marine services | Other Formats
Station Details ID: 090180 Name: AIREYS INLET Lat: -38.46 Lon: 144.09 Height: 95.0 m
Data from the previous 72 hours. | See also: Recent months at Aireys Inlet
Date/Time
EST
Temp

°C
Wind Pressure Rain
since 9am
mm
Weather Cloud Vis
km
Sea
Height
m
Swell
Dir
 
Speed
knots
Gust
knots
hPa Trend Height
m
Period
s
Dir
22/12:30am 14.9 NNW 14 20 - - 0.4 - - - - - - -
22/12:00am 17.3 N 2 4 - - 0.0 - - - - - - -
 
Date/Time
EST
Temp

°C
Wind Pressure Rain
since 9am
mm
Weather Cloud Vis
km
Sea
Height
m
Swell
Dir
 
Speed
knots
Gust
knots
hPa Trend Height
m
Period
s
Dir
21/11:30pm 17.5 WNW 3 6 - - 0.0 - - - - - - -
21/11:00pm 17.3 SW 7 12 - - 0.0 - - - - - - -
21/10:30pm 17.2 WSW 3 5 - - 0.0 - - - - - - -
21/10:00pm 17.3 N 6 14 - - 0.0 - - - - - - -
21/09:30pm 17.4 N 11 17 - - 0.0 - - - - - - -
21/09:00pm 17.7 N 14 26 - - 0.0 - - - - - - -
21/08:30pm 17.3 NNE 9 16 - - 0.0 - - - - - - -
21/08:00pm 17.0 NNE 8 16 - - 0.0 - - - - - - -
21/07:30pm 17.1 NE 7 12 - - 0.0 - - - - - - -
21/07:00pm 17.7 NNE 5 10 - - 0.0 - - - - - - -
21/06:00pm 19.4 N 12 20 - - 0.0 - - - - - - -
21/05:30pm 19.7 N 9 16 - - 0.0 - - - - - - -
21/05:00pm 19.9 N 8 14 - - 0.0 - - - - - - -
21/04:30pm 20.6 N 11 18 - - 0.0 - - - - - - -
21/04:00pm 21.2 N 9 14 - - 0.0 - - - - - - -
21/03:30pm 21.0 N 15 27 - - 0.0 - - - - - - -
21/03:14pm 20.8 N 15 28 - - 0.0 - - - - - - -
21/03:00pm 20.9 N 14 23 - - 0.0 - - - - - - -
21/02:30pm 20.6 N 11 19 - - 0.0 - - - - - - -
21/02:00pm 19.8 N 12 20 - - 0.0 - - - - - - -
21/01:30pm 20.1 N 14 22 - - 0.0 - - - - - - -
21/01:00pm 19.3 N 13 23 - - 0.0 - - - - - - -
21/12:31pm 20.9 N 16 30 - - 0.0 - - - - - - -
21/12:30pm 21.0 N 14 28 - - 0.0 - - - - - - -
21/12:00pm 19.7 N 16 26 - - 0.0 - - - - - - -
21/11:58am 19.8 N 15 26 - - 0.0 - - - - - - -
21/11:30am 19.2 N 12 21 - - 0.0 - - - - - - -
21/11:00am 16.7 N 10 15 - - 0.0 - - - - - - -
21/10:30am 15.4 NNW 10 18 - - 0.0 - - - - - - -
21/10:00am 14.3 NNW 8 12 - - 0.0 - - - - - - -
21/09:30am 13.5 NNW 11 16 - - 0.0 - - - - - - -
21/09:00am 13.3 NW 15 20 - - 0.0 - - - - - - -
21/08:30am 13.1 NW 13 18 - - 0.0 - - - - - - -
21/08:00am 12.9 NNW 9 14 - - 0.0 - - - - - - -
21/07:30am 12.9 NNW 8 12 - - 0.0 - - - - - - -
21/07:00am 12.8 NNW 8 14 - - 0.0 - - - - - - -
21/06:30am 12.9 N 7 12 - - 0.0 - - - - - - -
21/06:00am 12.4 NNW 4 7 - - 0.0 - - - - - - -
21/05:30am 12.4 WNW 3 9 - - 0.0 - - - - - - -
21/05:00am 12.1 ENE 3 6 - - 0.0 - - - - - - -
21/04:30am 12.3 NE 5 7 - - 0.0 - - - - - - -
21/04:00am 12.7 N 5 8 - - 0.0 - - - - - - -
21/03:30am 12.8 N 6 9 - - 0.0 - - - - - - -
21/03:00am 12.8 N 7 9 - - 0.0 - - - - - - -
21/02:30am 12.3 N 5 6 - - 0.0 - - - - - - -
21/02:00am 12.5 N 7 10 - - 0.0 - - - - - - -
21/01:30am 13.2 N 9 12 - - 0.0 - - - - - - -
21/01:00am 13.0 N 8 11 - - 0.0 - - - - - - -
21/12:30am 13.4 N 8 10 - - 0.0 - - - - - - -
21/12:00am 13.0 NNW 5 7 - - 0.0 - - - - - - -
 
Date/Time
EST
Temp

°C
Wind Pressure Rain
since 9am
mm
Weather Cloud Vis
km
Sea
Height
m
Swell
Dir
 
Speed
knots
Gust
knots
hPa Trend Height
m
Period
s
Dir
20/11:30pm 12.9 NW 4 5 - - 0.0 - - - - - - -
20/11:00pm 13.4 NW 4 5 - - 0.0 - - - - - - -
20/10:30pm 12.7 N 4 6 - - 0.0 - - - - - - -
20/10:00pm 13.5 N 3 4 - - 0.0 - - - - - - -
20/09:30pm 14.5 NW 3 5 - - 0.0 - - - - - - -
20/09:00pm 14.6 NNW 4 5 - - 0.0 - - - - - - -
20/08:30pm 14.5 NW 5 7 - - 0.0 - - - - - - -
20/08:00pm 15.1 NW 8 11 - - 0.0 - - - - - - -
20/07:30pm 15.0 NW 6 9 - - 0.0 - - - - - - -
20/07:00pm 15.4 W 5 8 - - 0.0 - - - - - - -
20/06:30pm 15.8 WNW 2 3 - - 0.0 - - - - - - -
20/06:00pm 16.1 CALM 0 0 - - 0.0 - - - - - - -
20/05:30pm 16.8 CALM 0 0 - - 0.0 - - - - - - -
20/05:00pm 17.5 W 3 5 - - 0.0 - - - - - - -
20/04:30pm 18.3 W 7 13 - - 0.0 - - - - - - -
20/04:00pm 19.1 WSW 5 9 - - 0.0 - - - - - - -
20/03:30pm 18.8 W 10 16 - - 0.0 - - - - - - -
20/03:00pm 18.8 W 9 16 - - 0.0 - - - - - - -
20/02:30pm 18.9 W 11 19 - - 0.0 - - - - - - -
20/02:00pm 18.3 W 10 15 - - 0.0 - - - - - - -
20/01:30pm 17.6 NW 10 17 - - 0.0 - - - - - - -
20/01:00pm 17.3 WNW 10 17 - - 0.0 - - - - - - -
20/12:30pm 17.2 W 15 22 - - 0.0 - - - - - - -
20/12:00pm 16.6 WNW 9 19 - - 0.0 - - - - - - -
20/11:30am 16.1 NW 12 21 - - 0.0 - - - - - - -
20/11:00am 15.7 WNW 13 26 - - 0.0 - - - - - - -
20/10:53am 15.3 NW 15 26 - - 0.0 - - - - - - -
20/10:30am 14.4 NW 13 22 - - 0.0 - - - - - - -
20/10:18am 14.9 NW 15 25 - - 0.0 - - - - - - -
20/10:00am 14.4 NW 15 23 - - 0.0 - - - - - - -
20/09:30am 13.1 NW 13 21 - - 0.0 - - - - - - -
20/09:00am 12.9 WNW 15 23 - - 0.0 - - - - - - -
20/08:30am 12.2 NW 13 18 - - 0.0 - - - - - - -
20/08:00am 11.9 NW 12 19 - - 0.0 - - - - - - -
20/07:30am 10.5 NW 9 14 - - 0.0 - - - - - - -
20/07:00am 10.3 NNW 9 12 - - 0.0 - - - - - - -
20/06:30am 10.5 NNW 6 8 - - 0.0 - - - - - - -
20/06:00am 10.7 NNW 7 8 - - 0.0 - - - - - - -
20/05:30am 10.9 NNW 6 9 - - 0.0 - - - - - - -
20/05:00am 10.9 NNW 5 8 - - 0.0 - - - - - - -
20/04:30am 10.9 NNW 5 7 - - 0.0 - - - - - - -
20/04:00am 10.9 NW 5 7 - - 0.0 - - - - - - -
20/03:30am 11.0 NW 7 9 - - 0.0 - - - - - - -
20/03:00am 10.8 NW 5 6 - - 0.0 - - - - - - -
20/02:30am 10.9 NW 5 7 - - 0.0 - - - - - - -
20/02:00am 11.2 NW 6 7 - - 0.0 - - - - - - -
20/01:30am 11.2 NW 6 8 - - 0.0 - - - - - - -
20/01:00am 11.5 WNW 7 9 - - 0.0 - - - - - - -
20/12:30am 11.5 WNW 8 10 - - 0.0 - - - - - - -
20/12:00am 11.4 WNW 8 9 - - 0.0 - - - - - - -
 
Date/Time
EST
Temp

°C
Wind Pressure Rain
since 9am
mm
Weather Cloud Vis
km
Sea
Height
m
Swell
Dir
 
Speed
knots
Gust
knots
hPa Trend Height
m
Period
s
Dir
19/11:30pm 11.1 NW 8 11 - - 0.0 - - - - - - -
19/11:00pm 10.8 NW 8 10 - - 0.0 - - - - - - -
19/10:30pm 10.9 NW 8 11 - - 0.0 - - - - - - -
19/10:00pm 10.9 NW 8 10 - - 0.0 - - - - - - -
19/09:30pm 10.4 NW 7 9 - - 0.0 - - - - - - -
19/09:00pm 10.1 NW 7 8 - - 0.0 - - - - - - -
19/08:30pm 10.0 NNW 5 8 - - 0.0 - - - - - - -
19/08:00pm 10.7 NW 6 8 - - 0.0 - - - - - - -
19/07:30pm 11.5 NW 3 5 - - 0.0 - - - - - - -
19/07:00pm 12.2 W 5 7 - - 0.0 - - - - - - -
19/06:30pm 12.3 WNW 5 6 - - 0.0 - - - - - - -
19/06:00pm 12.6 W 4 5 - - 0.0 - - - - - - -
19/05:30pm 13.0 WSW 4 5 - - 0.0 - - - - - - -
19/05:00pm 13.4 SW 5 8 - - 0.0 - - - - - - -
19/04:30pm 13.9 SW 6 11 - - 0.0 - - - - - - -
19/04:00pm 14.5 SW 3 6 - - 0.0 - - - - - - -
19/03:30pm 14.5 SSW 5 9 - - 0.0 - - - - - - -
19/03:00pm 13.8 SSW 3 4 - - 0.0 - - - - - - -
19/02:30pm 13.1 WSW 7 12 - - 0.0 - - - - - - -
19/02:00pm 13.7 SSW 9 12 - - 0.0 - - - - - - -
19/01:30pm 14.9 SSW 2 4 - - 0.0 - - - - - - -
19/01:00pm 13.8 WSW 6 10 - - 0.0 - - - - - - -
19/12:30pm 13.7 SW 10 17 - - 0.0 - - - - - - -
19/12:00pm 15.7 WSW 6 10 - - 0.0 - - - - - - -
19/11:30am 14.8 W 7 10 - - 0.0 - - - - - - -
19/11:00am 13.9 W 6 11 - - 0.0 - - - - - - -
19/10:30am 13.2 WSW 13 20 - - 0.0 - - - - - - -
19/10:00am 14.1 WSW 10 17 - - 0.0 - - - - - - -
19/09:30am 12.3 NW 5 7 - - 0.0 - - - - - - -
19/09:00am 12.3 W 8 12 - - 0.2 - - - - - - -
19/08:30am 12.2 W 9 13 - - 0.2 - - - - - - -
19/08:00am 11.7 W 8 12 - - 0.2 - - - - - - -
19/07:30am 11.6 W 8 10 - - 0.2 - - - - - - -
19/07:00am 11.5 W 7 10 - - 0.2 - - - - - - -
19/06:30am 11.5 W 7 10 - - 0.2 - - - - - - -
19/06:00am 11.4 W 7 9 - - 0.2 - - - - - - -
19/05:30am 11.6 W 7 9 - - 0.2 - - - - - - -
19/05:00am 11.9 W 7 13 - - 0.2 - - - - - - -
19/04:30am 11.9 WSW 8 10 - - 0.2 - - - - - - -
19/04:00am 12.0 WSW 9 13 - - 0.2 - - - - - - -
19/03:30am 11.7 W 10 14 - - 0.2 - - - - - - -
19/03:00am 12.0 W 11 17 - - 0.2 - - - - - - -
19/02:30am 12.0 W 8 11 - - 0.2 - - - - - - -
19/02:00am 12.3 WSW 11 15 - - 0.2 - - - - - - -
19/01:30am 11.8 W 9 13 - - 0.2 - - - - - - -
19/01:00am 12.0 W 10 15 - - 0.2 - - - - - - -

Other Formats:

Comma delimited format used in spreadsheet applications
http://www.bom.gov.au/fwo/IDV60701/IDV60701.94846.axf

JavaScript Object Notation format (JSON) in row-major order
http://www.bom.gov.au/fwo/IDV60701/IDV60701.94846.json